Portada
METAR-TAF:

METAR-TAF

Aeropuertos :

Nadi, Fiyi

Aeropuerto Internacional de Nadi

latitud: 17-45S, longitud: 177-27E, altitud: 13 m

Observación

El informe se hizo hace 1 hora y 3 minutos, a las 01:00 UTC
Viento 10 kt del oeste-suroeste
Temperatura 29°C
Humedad 70%
Presión 1011 hPa
Visibilidad 10 km o más
Nubes dispersas a una altura de 2800 ft

METAR: NFFN 230100Z 25010KT 9999 SCT028 29/23 Q1011 NOSIG

Hora: 14:03 (02:03 UTC)

Pronóstico

El informe se hizo hace 2 horas y 57 minutos, a las 23:06 UTC
Pronóstico válido del 23 a las 00 UTC al 23 a las 24 UTC
Viento 10 kt del oeste
Visibilidad 10 km o más
Escasas nubes a una altura de 2800 ft
Evolucionando progresivamente
del 23 a las 04 UTC al 23 a las 06 UTC
Viento 5 kt del este
Evolucionando progresivamente
del 23 a las 21 UTC al 23 a las 23 UTC
Viento 10 kt del oeste

TAF: NFFN 222306Z 2300/2324 27010KT 9999 FEW028 BECMG 2304/2306 08005KT BECMG 2321/2323 28010KT

Observaciones y pronósticos meteorológicos de más de 4000 aeropuertos (mensajes METAR y TAF).

Los puntos amarillos y rojos representan las estaciones disponibles.

Ponga el ratón en el punto deseado para ver el nombre de la estación.

Haga clic para ver las observaciones y los pronósticos meteorológicos.

Para cambiar el mapa : haga clic en los botones verdes con una cruz de color negro para hacer un zoom, en el botón verde con un guión para alejar o en las flechas verdes para mapas adyacentes.


METAR-TAF: